Time;durP1;ratioP1;P1;durP2;ratioP2;P2;SDS_P1;SDS_P2;PMS_P1;PMS_P2;Temp;Humidity;BMP_temperature;BMP_pressure;BME280_temperature;BME280_humidity;BME280_pressure;Samples;Min_cycle;Max_cycle;Signal;HPM_P1;HPM_P2
2023/08/03 00:00:14;;;;;;;13.75;8.30;;;;;;;20.74;65.38;95930.72;5095557;28;20052;-66
2023/08/03 00:02:43;;;;;;;8.63;7.72;;;;;;;20.73;65.89;95933.50;5095713;28;20048;-66
2023/08/03 00:05:10;;;;;;;9.57;8.57;;;;;;;20.70;65.53;95930.16;5095447;28;20048;-66
2023/08/03 00:07:38;;;;;;;8.77;7.40;;;;;;;20.71;65.91;95931.00;5095269;28;20500;-66
2023/08/03 00:10:06;;;;;;;8.02;7.32;;;;;;;20.65;65.77;95931.56;5095097;28;20069;-65
2023/08/03 00:12:33;;;;;;;9.05;8.15;;;;;;;20.59;66.02;95930.28;5095356;28;20040;-67
2023/08/03 00:15:00;;;;;;;9.10;8.20;;;;;;;20.59;65.82;95932.94;5095236;28;20102;-64
2023/08/03 00:17:27;;;;;;;8.98;7.90;;;;;;;20.63;66.21;95939.66;5095171;28;20044;-66
2023/08/03 00:19:56;;;;;;;8.82;7.95;;;;;;;20.63;66.26;95931.69;5094812;28;20052;-66
2023/08/03 00:22:23;;;;;;;13.25;8.43;;;;;;;20.64;66.46;95941.31;5094922;28;20098;-66
2023/08/03 00:24:50;;;;;;;8.98;8.13;;;;;;;20.64;66.63;95937.81;5095026;28;20048;-66
2023/08/03 00:27:17;;;;;;;8.73;7.78;;;;;;;20.60;66.71;95936.41;5094841;28;20044;-66
2023/08/03 00:29:44;;;;;;;8.32;7.53;;;;;;;20.54;67.19;95938.66;5094749;28;20501;-66
2023/08/03 00:32:12;;;;;;;8.70;7.90;;;;;;;20.47;67.09;95934.88;5094581;28;20098;-65
2023/08/03 00:34:39;;;;;;;8.50;7.70;;;;;;;20.48;67.38;95935.69;5094699;28;20056;-67
2023/08/03 00:37:07;;;;;;;8.77;8.00;;;;;;;20.48;67.57;95933.88;5094773;28;20424;-65
2023/08/03 00:39:34;;;;;;;8.40;7.60;;;;;;;20.50;67.52;95939.06;5094734;28;20044;-67
2023/08/03 00:42:01;;;;;;;9.18;8.10;;;;;;;20.47;67.60;95944.66;5094648;28;20048;-65
2023/08/03 00:44:29;;;;;;;10.45;8.40;;;;;;;20.49;67.37;95940.00;5094818;28;20105;-66
2023/08/03 00:46:56;;;;;;;8.95;8.15;;;;;;;20.51;67.37;95940.72;5094418;28;20501;-66
2023/08/03 00:49:27;;;;;;;9.45;8.55;;;;;;;20.51;67.08;95935.41;5094438;28;20468;-67
2023/08/03 00:51:55;;;;;;;9.32;8.35;;;;;;;20.50;67.52;95936.41;5094292;28;20397;-66
2023/08/03 00:54:23;;;;;;;9.30;8.40;;;;;;;20.44;67.65;95933.31;5094517;28;20055;-66
2023/08/03 00:56:51;;;;;;;8.88;8.07;;;;;;;20.40;67.99;95933.69;5094252;28;20047;-67
2023/08/03 00:59:18;;;;;;;12.07;8.07;;;;;;;20.38;67.89;95941.81;5094291;28;20047;-65
2023/08/03 01:01:45;;;;;;;9.02;8.18;;;;;;;20.40;68.36;95941.66;5094123;28;20101;-65
2023/08/03 01:04:12;;;;;;;8.70;7.90;;;;;;;20.37;68.71;95936.63;5094305;28;20052;-65
2023/08/03 01:06:39;;;;;;;9.15;8.23;;;;;;;20.30;68.38;95939.00;5094152;28;20087;-66
2023/08/03 01:09:07;;;;;;;9.77;8.85;;;;;;;20.27;68.25;95929.47;5093944;28;20489;-67
2023/08/03 01:11:35;;;;;;;9.60;8.70;;;;;;;20.27;68.90;95929.47;5094022;28;20055;-65
2023/08/03 01:14:03;;;;;;;8.98;8.18;;;;;;;20.23;68.86;95928.09;5094118;28;20044;-67
2023/08/03 01:16:30;;;;;;;8.80;7.97;;;;;;;20.28;68.78;95930.31;5093929;28;20151;-66
2023/08/03 01:18:58;;;;;;;10.10;8.43;;;;;;;20.26;68.61;95929.63;5093193;28;20044;-67
2023/08/03 01:21:27;;;;;;;9.20;8.32;;;;;;;20.23;68.46;95924.56;5093926;28;20048;-65
2023/08/03 01:23:57;;;;;;;9.65;8.65;;;;;;;20.20;68.93;95925.69;5093812;28;20044;-67
2023/08/03 01:26:25;;;;;;;8.57;7.78;;;;;;;20.23;68.59;95925.44;5093858;28;20138;-66
2023/08/03 01:28:52;;;;;;;9.70;8.75;;;;;;;20.24;68.94;95926.25;5093829;28;20043;-66
2023/08/03 01:31:20;;;;;;;10.82;8.55;;;;;;;20.21;68.87;95932.66;5093526;28;20048;-66
2023/08/03 01:33:47;;;;;;;9.38;8.00;;;;;;;20.20;68.89;95926.50;5093740;28;20063;-67
2023/08/03 01:36:14;;;;;;;10.82;8.73;;;;;;;20.20;69.12;95938.97;5093925;28;20109;-66
2023/08/03 01:38:42;;;;;;;9.23;8.32;;;;;;;20.20;68.93;95936.31;5093684;28;20055;-67
2023/08/03 01:41:10;;;;;;;11.68;8.73;;;;;;;20.16;68.98;95941.03;5093534;28;20075;-65
2023/08/03 01:43:37;;;;;;;11.90;7.97;;;;;;;20.14;69.23;95944.81;5093837;28;20067;-66
2023/08/03 01:46:05;;;;;;;9.65;8.65;;;;;;;20.13;69.22;95941.28;5093539;28;20047;-65
2023/08/03 01:48:32;;;;;;;9.00;7.55;;;;;;;20.13;69.46;95949.25;5093604;28;20068;-66
2023/08/03 01:50:59;;;;;;;9.00;8.20;;;;;;;20.13;69.33;95949.25;5093322;28;20043;-66
2023/08/03 01:53:26;;;;;;;9.52;8.63;;;;;;;20.10;69.25;95952.19;5093589;28;20044;-66
2023/08/03 01:55:53;;;;;;;9.43;8.57;;;;;;;20.10;69.33;95957.47;5093269;28;20056;-65
2023/08/03 01:58:22;;;;;;;9.68;8.85;;;;;;;20.03;69.49;95953.69;5093308;28;20481;-65
2023/08/03 02:00:49;;;;;;;10.02;8.48;;;;;;;19.96;69.54;95950.69;5093359;28;20048;-65
2023/08/03 02:03:16;;;;;;;9.75;8.85;;;;;;;19.95;69.83;95957.81;5093341;28;20051;-66
2023/08/03 02:05:43;;;;;;;9.30;8.50;;;;;;;19.92;70.23;95957.22;5093210;28;20044;-66
2023/08/03 02:08:09;;;;;;;9.52;8.48;;;;;;;19.87;69.55;95962.91;5093257;28;20074;-65
2023/08/03 02:10:36;;;;;;;9.05;8.25;;;;;;;19.88;70.39;95959.31;5092935;28;20451;-66
2023/08/03 02:13:04;;;;;;;9.60;8.30;;;;;;;19.83;70.42;95964.16;5093038;28;20451;-66
2023/08/03 02:15:32;;;;;;;9.85;8.43;;;;;;;19.81;70.71;95950.19;5093226;28;20060;-66
2023/08/03 02:17:59;;;;;;;11.82;8.95;;;;;;;19.79;70.55;95952.97;5093130;28;20045;-66
2023/08/03 02:20:26;;;;;;;9.45;8.60;;;;;;;19.78;70.52;95948.63;5092773;28;20393;-66
2023/08/03 02:22:54;;;;;;;8.90;8.10;;;;;;;19.80;70.92;95944.03;5093094;28;20055;-65
2023/08/03 02:25:23;;;;;;;9.90;8.90;;;;;;;19.79;70.63;95946.81;5093121;28;20063;-66
2023/08/03 02:27:51;;;;;;;9.68;8.75;;;;;;;19.80;70.68;95945.84;5093176;28;20055;-66
2023/08/03 02:30:18;;;;;;;9.52;8.68;;;;;;;19.79;70.46;95950.31;5093562;28;20489;-65
2023/08/03 02:32:47;;;;;;;10.05;9.05;;;;;;;19.76;70.91;95949.72;5097089;28;20054;-66
2023/08/03 02:35:14;;;;;;;9.60;8.70;;;;;;;19.72;70.81;95949.16;5097222;28;20047;-66
2023/08/03 02:37:41;;;;;;;10.60;8.18;;;;;;;19.72;70.98;95957.13;5097026;28;20051;-66
2023/08/03 02:40:09;;;;;;;9.85;8.77;;;;;;;19.68;71.12;95959.19;5096962;28;20123;-65
2023/08/03 02:42:36;;;;;;;10.05;9.05;;;;;;;19.65;70.85;95958.59;5096844;28;20512;-66
2023/08/03 02:45:04;;;;;;;9.63;8.68;;;;;;;19.69;71.17;95968.00;5096901;28;20080;-66
2023/08/03 02:47:31;;;;;;;8.73;7.95;;;;;;;19.70;71.44;95961.69;5096794;28;20052;-66
2023/08/03 02:49:59;;;;;;;9.02;8.20;;;;;;;19.65;71.45;95963.88;5096769;28;20087;-65
2023/08/03 02:52:26;;;;;;;9.35;8.43;;;;;;;19.67;71.79;95969.91;5096637;28;20051;-66
2023/08/03 02:54:53;;;;;;;8.52;7.72;;;;;;;19.63;71.19;95973.81;5096881;28;20044;-65
2023/08/03 02:57:21;;;;;;;9.48;8.10;;;;;;;19.59;71.52;95975.03;5096661;28;20044;-66
2023/08/03 02:59:48;;;;;;;9.30;8.02;;;;;;;19.55;71.39;95971.78;5096464;28;20040;-65
2023/08/03 03:02:15;;;;;;;9.35;8.50;;;;;;;19.59;71.82;95975.03;5096591;28;20574;-66
2023/08/03 03:04:42;;;;;;;9.68;8.77;;;;;;;19.56;71.55;95978.75;5096595;28;20151;-65
2023/08/03 03:07:10;;;;;;;9.23;8.32;;;;;;;19.60;71.88;95977.56;5096388;28;20059;-66
2023/08/03 03:09:37;;;;;;;9.57;8.05;;;;;;;19.59;72.07;95983.81;5096431;28;20048;-65
2023/08/03 03:12:05;;;;;;;8.32;7.63;;;;;;;19.61;72.25;95987.19;5096465;28;20044;-65
2023/08/03 03:14:32;;;;;;;8.93;8.05;;;;;;;19.52;72.06;95980.84;5096383;28;20146;-66
2023/08/03 03:16:59;;;;;;;9.18;8.27;;;;;;;19.48;72.31;95976.78;5096310;28;20448;-66
2023/08/03 03:19:26;;;;;;;8.82;8.02;;;;;;;19.48;72.23;95983.88;5096226;28;20094;-65
2023/08/03 03:21:53;;;;;;;11.65;9.30;;;;;;;19.52;72.71;95987.94;5096316;28;20114;-67
2023/08/03 03:24:21;;;;;;;8.55;7.75;;;;;;;19.48;72.32;95978.56;5096201;28;20119;-66
2023/08/03 03:26:48;;;;;;;9.13;8.32;;;;;;;19.50;72.78;95977.47;5096492;28;20139;-65
2023/08/03 03:29:15;;;;;;;9.13;8.32;;;;;;;19.52;72.87;95982.66;5096377;28;20052;-65
2023/08/03 03:31:42;;;;;;;8.50;7.80;;;;;;;19.52;72.34;95983.50;5095956;28;20048;-66
2023/08/03 03:34:09;;;;;;;8.73;7.82;;;;;;;19.54;72.52;95983.38;5095997;28;20048;-66
2023/08/03 03:36:36;;;;;;;9.98;8.88;;;;;;;19.49;72.45;95978.44;5095869;28;20044;-66
2023/08/03 03:39:04;;;;;;;9.25;8.40;;;;;;;19.51;73.13;95984.44;5096035;28;20130;-66
2023/08/03 03:41:32;;;;;;;10.23;9.05;;;;;;;19.49;73.31;95978.44;5095230;28;20497;-66
2023/08/03 03:43:59;;;;;;;9.90;8.90;;;;;;;19.58;73.01;95974.19;5095993;28;20131;-66
2023/08/03 03:46:27;;;;;;;9.88;7.80;;;;;;;19.68;73.42;95984.84;5095834;28;20052;-66
2023/08/03 03:48:54;;;;;;;9.68;8.73;;;;;;;19.74;72.89;95994.13;5095708;28;20044;-65
2023/08/03 03:51:21;;;;;;;9.48;8.52;;;;;;;19.83;72.75;95988.88;5095614;28;20077;-65
2023/08/03 03:53:48;;;;;;;9.15;8.25;;;;;;;19.90;72.50;95996.31;5095635;28;20040;-66
2023/08/03 03:56:15;;;;;;;9.85;8.88;;;;;;;20.00;72.24;96001.69;5095562;28;20512;-66
2023/08/03 03:58:44;;;;;;;8.43;7.63;;;;;;;20.11;72.25;96003.47;5095366;28;20511;-66
2023/08/03 04:01:11;;;;;;;9.52;8.63;;;;;;;20.32;71.29;95995.47;5095413;28;20048;-65
2023/08/03 04:03:38;;;;;;;8.70;7.72;;;;;;;20.61;71.02;96001.84;5095364;28;20044;-66
2023/08/03 04:06:05;;;;;;;8.45;7.65;;;;;;;20.95;70.25;96002.41;5095412;28;20131;-66
2023/08/03 04:08:33;;;;;;;8.77;7.97;;;;;;;21.37;68.36;96003.16;5095247;28;20481;-66
2023/08/03 04:10:59;;;;;;;8.55;7.65;;;;;;;21.80;66.52;95995.78;5095299;28;20051;-66
2023/08/03 04:13:27;;;;;;;9.18;8.27;;;;;;;22.24;65.03;95999.72;5095403;28;20378;-66
2023/08/03 04:15:55;;;;;;;10.57;6.85;;;;;;;22.73;63.68;96004.06;5095087;28;20560;-65
2023/08/03 04:18:22;;;;;;;7.88;6.78;;;;;;;23.23;62.02;95996.59;5095220;28;20048;-66
2023/08/03 04:20:49;;;;;;;8.27;6.90;;;;;;;23.70;60.03;96014.25;5094754;28;20043;-65
2023/08/03 04:23:17;;;;;;;9.18;6.22;;;;;;;24.12;58.63;96014.56;5094882;28;20052;-65
2023/08/03 04:25:44;;;;;;;6.50;5.90;;;;;;;24.57;57.99;96012.69;5094997;28;20119;-65
2023/08/03 04:28:11;;;;;;;7.10;6.47;;;;;;;24.96;56.72;96014.03;5094773;28;20051;-66
2023/08/03 04:30:38;;;;;;;7.80;6.70;;;;;;;25.34;55.41;96024.34;5094900;28;20079;-66
2023/08/03 04:33:07;;;;;;;6.95;6.13;;;;;;;25.74;54.56;96016.56;5094790;28;20052;-66
2023/08/03 04:35:35;;;;;;;9.25;6.32;;;;;;;26.06;53.92;96014.03;5094917;28;20048;-67
2023/08/03 04:38:02;;;;;;;7.30;6.57;;;;;;;26.33;53.17;96022.75;5094960;28;20040;-66
2023/08/03 04:40:29;;;;;;;6.55;5.95;;;;;;;26.64;52.70;96023.00;5094758;28;20052;-66
2023/08/03 04:42:56;;;;;;;6.88;5.90;;;;;;;26.92;51.26;96022.56;5094673;28;20062;-65
2023/08/03 04:45:24;;;;;;;8.75;6.78;;;;;;;27.20;51.35;96020.28;5094530;28;20056;-66
2023/08/03 04:47:54;;;;;;;7.55;6.85;;;;;;;27.49;50.66;96018.78;5094774;28;20490;-66
2023/08/03 04:50:22;;;;;;;7.83;6.70;;;;;;;27.78;49.77;96026.31;5094710;28;20040;-65
2023/08/03 04:52:50;;;;;;;5.88;5.38;;;;;;;28.06;50.22;96028.44;5093921;28;20514;-66
2023/08/03 04:55:17;;;;;;;6.35;5.75;;;;;;;28.35;50.01;96032.22;5094359;28;20123;-66
2023/08/03 04:57:44;;;;;;;7.03;6.18;;;;;;;28.57;49.48;96040.41;5094658;28;20048;-66
2023/08/03 05:00:13;;;;;;;6.15;5.57;;;;;;;28.85;48.78;96035.22;5094452;28;20128;-65
2023/08/03 05:02:41;;;;;;;9.02;6.38;;;;;;;29.11;48.41;96035.78;5094251;28;20131;-67
2023/08/03 05:05:09;;;;;;;5.50;5.00;;;;;;;29.30;47.89;96044.25;5094375;28;20047;-66
2023/08/03 05:07:38;;;;;;;6.80;5.60;;;;;;;29.53;47.88;96044.13;5094474;28;20047;-66
2023/08/03 05:10:06;;;;;;;7.28;5.90;;;;;;;29.79;48.12;96037.34;5094358;28;20101;-66
2023/08/03 05:12:38;;;;;;;6.45;5.47;;;;;;;30.06;47.50;96044.81;5094111;28;20501;-66
2023/08/03 05:15:06;;;;;;;5.82;5.43;;;;;;;30.36;46.73;96047.38;5094176;28;20102;-66
2023/08/03 05:17:34;;;;;;;6.82;6.13;;;;;;;30.58;44.81;96052.72;5094115;28;20103;-66
2023/08/03 05:20:01;;;;;;;7.03;5.72;;;;;;;30.85;44.98;96052.94;5093794;28;20106;-66
2023/08/03 05:22:29;;;;;;;8.27;6.07;;;;;;;31.09;43.79;96058.88;5094104;28;20131;-67
2023/08/03 05:24:58;;;;;;;6.57;5.95;;;;;;;31.37;44.07;96061.50;5093950;28;20048;-66
2023/08/03 05:27:25;;;;;;;5.88;5.25;;;;;;;31.58;43.41;96064.25;5093893;28;20091;-66
2023/08/03 05:29:53;;;;;;;6.43;5.75;;;;;;;31.78;42.82;96059.72;5093745;28;20131;-66
2023/08/03 05:32:21;;;;;;;6.50;6.00;;;;;;;31.97;43.65;96057.28;5093628;28;20493;-67
2023/08/03 05:34:48;;;;;;;6.63;6.00;;;;;;;32.18;43.81;96060.00;5093647;28;20069;-66
2023/08/03 05:37:16;;;;;;;9.80;6.30;;;;;;;32.39;42.33;96053.56;5093595;28;20048;-68
2023/08/03 05:39:44;;;;;;;9.15;6.50;;;;;;;32.57;41.34;96060.22;5093709;28;20048;-67
2023/08/03 05:42:14;;;;;;;9.10;6.47;;;;;;;32.80;41.68;96062.44;5093635;28;20044;-67
2023/08/03 05:44:41;;;;;;;7.72;6.07;;;;;;;33.02;40.38;96060.31;5093646;28;20048;-67
2023/08/03 05:47:11;;;;;;;8.30;5.85;;;;;;;33.27;41.19;96064.22;5093569;28;20066;-68
2023/08/03 05:49:39;;;;;;;7.50;6.80;;;;;;;33.51;40.89;96064.53;5093544;28;20054;-67
2023/08/03 05:52:10;;;;;;;6.70;6.00;;;;;;;33.65;39.08;96059.91;5093328;28;20044;-67
2023/08/03 05:54:39;;;;;;;7.32;6.45;;;;;;;33.83;38.76;96063.75;5093467;28;20044;-66
2023/08/03 05:57:07;;;;;;;7.75;5.97;;;;;;;34.04;37.60;96062.56;5093369;28;20044;-67
2023/08/03 05:59:37;;;;;;;6.43;5.82;;;;;;;34.28;39.70;96054.69;5093365;28;20081;-66
2023/08/03 06:02:19;;;;;;;8.02;6.03;;;;;;;34.40;39.55;96058.31;5093585;28;20654;-67
2023/08/03 06:04:46;;;;;;;7.25;6.38;;;;;;;34.65;39.15;96062.06;5093237;28;20519;-67
2023/08/03 06:07:15;;;;;;;7.20;6.38;;;;;;;34.86;37.20;96054.56;5093588;28;20044;-66
2023/08/03 06:09:42;;;;;;;6.78;6.05;;;;;;;35.00;36.39;96053.34;5093197;28;20048;-67
2023/08/03 06:12:15;;;;;;;6.38;5.88;;;;;;;35.01;36.29;96057.75;5093162;28;20123;-66
2023/08/03 06:14:44;;;;;;;7.03;5.30;;;;;;;35.09;36.39;96059.31;5093501;28;20044;-66
2023/08/03 06:17:11;;;;;;;6.35;5.57;;;;;;;34.87;31.14;96058.94;5093281;28;20181;-67
2023/08/03 06:19:39;;;;;;;6.28;5.68;;;;;;;34.84;33.16;96053.97;5092850;28;20054;-68
2023/08/03 06:22:16;;;;;;;5.75;5.25;;;;;;;34.75;32.76;96048.84;5093274;28;20051;-68
2023/08/03 06:24:44;;;;;;;6.15;5.55;;;;;;;34.82;32.00;96056.09;5093190;28;20047;-68
2023/08/03 06:27:13;;;;;;;7.40;5.53;;;;;;;34.97;32.99;96053.81;5093047;28;20048;-66
2023/08/03 06:29:41;;;;;;;7.13;5.43;;;;;;;35.19;32.58;96056.13;5093135;28;20131;-68
2023/08/03 06:32:18;;;;;;;6.90;5.63;;;;;;;34.91;31.11;96052.00;5092985;28;20285;-67
2023/08/03 06:34:46;;;;;;;5.82;5.22;;;;;;;34.85;33.74;96059.16;5093031;28;20398;-66
2023/08/03 06:37:13;;;;;;;7.90;5.30;;;;;;;34.86;32.78;96058.13;5093176;28;20052;-66
2023/08/03 06:39:41;;;;;;;6.53;5.35;;;;;;;34.94;30.91;96056.16;5093016;28;20086;-68
2023/08/03 06:42:08;;;;;;;7.63;5.30;;;;;;;35.26;31.46;96056.00;5092808;28;20070;-66
2023/08/03 06:44:36;;;;;;;6.97;5.03;;;;;;;35.23;30.69;96059.19;5092884;28;20410;-67
2023/08/03 06:47:03;;;;;;;6.97;5.53;;;;;;;35.32;32.13;96059.69;5092829;28;20062;-68
2023/08/03 06:49:32;;;;;;;5.63;5.10;;;;;;;35.44;31.82;96054.31;5092876;28;20094;-68
2023/08/03 06:52:00;;;;;;;6.35;5.75;;;;;;;35.64;32.72;96056.78;5092855;28;20044;-67
2023/08/03 06:54:27;;;;;;;7.40;5.40;;;;;;;35.92;29.56;96042.59;5092720;28;20052;-65
2023/08/03 06:56:54;;;;;;;7.93;5.55;;;;;;;36.17;31.12;96048.88;5092713;28;20500;-65
2023/08/03 06:59:22;;;;;;;6.45;4.90;;;;;;;36.13;31.16;96048.53;5092669;28;20044;-65
2023/08/03 07:01:51;;;;;;;8.73;6.35;;;;;;;36.04;32.13;96047.22;5092661;28;20098;-67
2023/08/03 07:04:18;;;;;;;8.52;5.85;;;;;;;35.79;29.88;96048.22;5092644;28;20490;-65
2023/08/03 07:06:51;;;;;;;8.32;5.90;;;;;;;35.64;30.34;96049.44;5092591;28;20109;-65
2023/08/03 07:09:19;;;;;;;8.30;5.85;;;;;;;35.76;30.60;96054.13;5092692;28;20139;-65
2023/08/03 07:11:49;;;;;;;6.97;6.28;;;;;;;35.77;31.04;96051.19;5092615;28;20087;-67
2023/08/03 07:14:16;;;;;;;9.90;5.57;;;;;;;35.98;31.16;96045.44;5092590;28;20052;-65
2023/08/03 07:16:43;;;;;;;7.40;5.85;;;;;;;35.99;31.26;96056.06;5093665;28;20443;-68
2023/08/03 07:19:13;;;;;;;6.53;5.93;;;;;;;36.41;32.35;96049.78;5095869;28;20512;-67
2023/08/03 07:21:40;;;;;;;78.13;9.90;;;;;;;36.76;31.56;96052.75;5096197;28;20416;-66
2023/08/03 07:24:09;;;;;;;8.60;6.45;;;;;;;36.62;29.57;96060.31;5096136;28;20051;-65
2023/08/03 07:26:37;;;;;;;15.90;7.28;;;;;;;36.44;31.84;96053.91;5096157;28;20048;-67
2023/08/03 07:29:06;;;;;;;9.45;7.30;;;;;;;36.72;32.08;96049.66;5096124;28;20058;-66
2023/08/03 07:31:33;;;;;;;9.10;7.25;;;;;;;36.93;29.71;96055.59;5096040;28;20054;-68
2023/08/03 07:34:01;;;;;;;12.07;6.20;;;;;;;37.20;29.84;96059.72;5095806;28;20481;-67
2023/08/03 07:36:28;;;;;;;8.50;7.32;;;;;;;37.40;30.75;96057.38;5095888;28;20496;-65
2023/08/03 07:38:56;;;;;;;10.43;6.95;;;;;;;37.59;29.48;96059.91;5096017;28;20043;-65
2023/08/03 07:41:25;;;;;;;6.82;5.85;;;;;;;37.45;29.46;96064.00;5095909;28;20044;-65
2023/08/03 07:43:52;;;;;;;10.63;6.35;;;;;;;37.05;29.39;96059.09;5095808;28;20044;-66
2023/08/03 07:46:20;;;;;;;8.02;6.68;;;;;;;36.89;30.28;96054.38;5096033;28;20131;-68
2023/08/03 07:48:47;;;;;;;9.95;6.00;;;;;;;36.98;30.87;96060.28;5095752;28;20052;-65
2023/08/03 07:51:15;;;;;;;10.20;6.20;;;;;;;37.28;29.82;96062.03;5095817;28;20133;-67
2023/08/03 07:53:42;;;;;;;7.45;6.50;;;;;;;37.33;29.25;96064.03;5095547;28;20048;-66
2023/08/03 07:56:15;;;;;;;8.80;5.97;;;;;;;37.38;30.30;96064.16;5095519;28;20040;-66
2023/08/03 07:58:45;;;;;;;10.00;5.95;;;;;;;37.61;30.01;96065.13;5095639;28;20160;-66
2023/08/03 08:01:13;;;;;;;13.93;6.78;;;;;;;37.56;28.74;96060.41;5095515;28;20040;-67
2023/08/03 08:03:41;;;;;;;10.43;6.20;;;;;;;37.60;30.09;96064.31;5095407;28;20056;-67
2023/08/03 08:06:14;;;;;;;8.23;6.22;;;;;;;37.91;29.68;96058.59;5095354;28;20044;-68
2023/08/03 08:08:42;;;;;;;11.10;6.28;;;;;;;38.25;29.02;96064.13;5095530;28;20065;-65
2023/08/03 08:11:11;;;;;;;7.07;5.72;;;;;;;38.43;28.68;96059.47;5095394;28;20044;-65
2023/08/03 08:13:39;;;;;;;11.02;6.28;;;;;;;38.39;28.05;96059.16;5095037;28;20048;-68
2023/08/03 08:16:10;;;;;;;7.70;6.07;;;;;;;38.36;28.47;96058.81;5095379;28;20055;-66
2023/08/03 08:18:42;;;;;;;8.25;6.03;;;;;;;38.28;28.25;96055.44;5095186;28;20535;-68
2023/08/03 08:21:11;;;;;;;7.45;5.68;;;;;;;38.37;27.79;96060.50;5094906;28;20401;-66
2023/08/03 08:23:39;;;;;;;8.63;5.82;;;;;;;38.08;27.40;96055.06;5095045;28;20050;-67
2023/08/03 08:26:17;;;;;;;12.55;6.53;;;;;;;38.00;27.72;96048.94;5095020;28;20048;-68
2023/08/03 08:28:46;;;;;;;8.13;5.90;;;;;;;37.82;28.38;96052.72;5094979;28;20048;-65
2023/08/03 08:31:16;;;;;;;6.65;6.05;;;;;;;37.71;29.86;96048.97;5095001;28;20055;-67
2023/08/03 08:33:43;;;;;;;7.82;6.07;;;;;;;37.83;28.52;96054.38;5094739;28;20052;-66
2023/08/03 08:36:11;;;;;;;8.27;5.72;;;;;;;37.81;28.35;96062.00;5094750;28;20406;-67
2023/08/03 08:38:38;;;;;;;7.15;6.55;;;;;;;37.18;28.10;96051.75;5094814;28;20052;-65
2023/08/03 08:41:05;;;;;;;13.35;6.88;;;;;;;36.89;28.85;96051.66;5094775;28;20044;-66
2023/08/03 08:43:33;;;;;;;7.47;5.82;;;;;;;36.82;30.62;96049.09;5094747;28;20066;-66
2023/08/03 08:46:01;;;;;;;6.95;6.35;;;;;;;36.74;29.46;96044.81;5094672;28;20100;-68
2023/08/03 08:48:29;;;;;;;6.53;5.88;;;;;;;36.95;30.87;96044.47;5094618;28;20128;-67
2023/08/03 08:51:01;;;;;;;7.18;6.15;;;;;;;37.18;29.21;96054.47;5095048;28;20052;-68
2023/08/03 08:53:30;;;;;;;11.13;6.38;;;;;;;37.29;29.37;96050.91;5094420;28;20051;-68
2023/08/03 08:56:00;;;;;;;6.78;5.93;;;;;;;36.75;28.68;96049.19;5094403;28;20044;-68
2023/08/03 08:58:27;;;;;;;11.90;6.40;;;;;;;36.18;29.39;96045.13;5094399;28;20477;-66
2023/08/03 09:01:03;;;;;;;7.32;5.50;;;;;;;36.33;30.64;96043.88;5094394;28;20048;-67
2023/08/03 09:03:46;;;;;;;6.90;5.60;;;;;;;36.58;31.87;96048.22;5094289;28;20500;-65
2023/08/03 09:06:13;;;;;;;6.28;5.60;;;;;;;36.56;29.96;96051.19;5094306;28;20059;-68
2023/08/03 09:08:50;;;;;;;9.38;6.53;;;;;;;36.83;30.60;96041.75;5094190;28;20048;-68
2023/08/03 09:11:18;;;;;;;9.13;5.70;;;;;;;36.96;29.62;96044.19;5094164;28;20048;-67
2023/08/03 09:13:49;;;;;;;8.43;5.95;;;;;;;37.25;29.52;96044.28;5094071;28;20098;-67
2023/08/03 09:16:27;;;;;;;7.05;6.22;;;;;;;37.23;28.98;96048.31;5094108;28;20044;-67
2023/08/03 09:18:57;;;;;;;9.50;6.72;;;;;;;37.37;28.87;96044.25;5093771;28;20140;-67
2023/08/03 09:21:25;;;;;;;7.57;6.30;;;;;;;37.45;28.69;96045.75;5093821;28;20133;-65
2023/08/03 09:23:54;;;;;;;7.32;6.30;;;;;;;37.00;28.88;96048.13;5093943;28;20093;-68
2023/08/03 09:26:25;;;;;;;7.68;6.35;;;;;;;36.69;28.11;96044.69;5093933;28;20079;-67
2023/08/03 09:28:52;;;;;;;7.28;6.07;;;;;;;36.89;29.77;96033.44;5093909;28;20048;-67
2023/08/03 09:31:25;;;;;;;8.63;5.78;;;;;;;37.10;29.30;96033.03;5093834;28;20131;-68
2023/08/03 09:33:58;;;;;;;7.13;6.50;;;;;;;36.90;28.52;96040.53;5093599;28;20126;-67
2023/08/03 09:36:26;;;;;;;8.25;6.35;;;;;;;36.52;28.69;96037.25;5093821;28;20102;-67
2023/08/03 09:38:54;;;;;;;8.50;6.40;;;;;;;36.25;28.99;96029.53;5093367;28;20138;-67
2023/08/03 09:41:35;;;;;;;10.60;6.57;;;;;;;35.97;29.92;96031.03;5093450;28;20055;-66
2023/08/03 09:44:05;;;;;;;8.23;5.95;;;;;;;35.67;30.04;96024.50;5093493;28;20050;-67
2023/08/03 09:46:33;;;;;;;7.47;6.78;;;;;;;35.84;29.04;96020.34;5093557;28;20104;-66
2023/08/03 09:49:02;;;;;;;7.57;5.95;;;;;;;35.93;29.70;96021.66;5093435;28;20060;-66
2023/08/03 09:51:31;;;;;;;6.85;6.10;;;;;;;36.08;29.30;96014.94;5093444;28;20044;-68
2023/08/03 09:54:08;;;;;;;9.52;6.28;;;;;;;36.09;31.59;96017.44;5093418;28;20438;-67
2023/08/03 09:56:38;;;;;;;7.55;6.85;;;;;;;36.33;28.72;96022.94;5093601;28;20047;-66
2023/08/03 09:59:12;;;;;;;7.80;6.78;;;;;;;36.49;29.19;96026.81;5093522;28;20056;-66
2023/08/03 10:01:44;;;;;;;7.68;6.85;;;;;;;36.68;28.97;96029.41;5093461;28;20413;-67
2023/08/03 10:04:16;;;;;;;9.77;6.57;;;;;;;36.77;28.12;96027.19;5093338;28;20048;-67
2023/08/03 10:06:47;;;;;;;7.35;6.63;;;;;;;36.84;28.67;96021.63;5093251;28;20048;-67
2023/08/03 10:09:21;;;;;;;10.43;6.65;;;;;;;37.02;27.61;96021.44;5093317;28;20048;-68
2023/08/03 10:11:52;;;;;;;7.07;6.47;;;;;;;36.95;28.69;96014.50;5093248;28;20048;-68
2023/08/03 10:14:28;;;;;;;8.23;6.40;;;;;;;36.75;27.76;96013.00;5093156;28;20420;-67
2023/08/03 10:16:58;;;;;;;8.10;6.20;;;;;;;36.41;28.44;96011.69;5093245;28;20052;-68
2023/08/03 10:19:26;;;;;;;9.35;6.70;;;;;;;36.30;28.96;96012.50;5092914;28;20052;-67
2023/08/03 10:21:57;;;;;;;7.13;6.53;;;;;;;36.05;29.92;96008.06;5093079;28;20044;-66
2023/08/03 10:24:25;;;;;;;7.53;6.80;;;;;;;35.64;29.15;95996.97;5093232;28;20105;-67
2023/08/03 10:26:54;;;;;;;6.82;6.15;;;;;;;35.62;29.36;96002.63;5093125;28;20080;-65
2023/08/03 10:29:55;;;;;;;7.47;6.78;;;;;;;35.44;29.89;95998.09;5093087;28;20044;-68
2023/08/03 10:32:26;;;;;;;7.00;6.40;;;;;;;35.69;30.36;95991.69;5093214;28;20093;-67
2023/08/03 10:34:59;;;;;;;7.78;7.03;;;;;;;35.94;30.61;95987.13;5092985;28;20071;-65
2023/08/03 10:37:27;;;;;;;7.25;6.20;;;;;;;36.05;28.43;95991.75;5093102;28;20101;-68
2023/08/03 10:39:59;;;;;;;8.75;6.80;;;;;;;35.70;29.10;95992.53;5093017;28;20048;-65
2023/08/03 10:42:32;;;;;;;8.40;6.00;;;;;;;35.73;28.63;95995.63;5093059;28;20074;-68
2023/08/03 10:45:30;;;;;;;9.82;7.30;;;;;;;35.97;28.56;95990.22;5092989;28;20382;-66
2023/08/03 10:48:34;;;;;;;8.52;6.88;;;;;;;35.89;28.30;95994.09;5080456;28;20043;-67
2023/08/03 10:51:04;;;;;;;9.60;7.47;;;;;;;35.87;29.30;95989.94;5089706;28;20408;-67
2023/08/03 10:53:32;;;;;;;;;;;;;;;35.42;28.91;95984.72;5097246;28;20440;-68
2023/08/03 10:56:08;;;;;;;9.23;7.30;;;;;;;35.13;29.44;95984.47;5096740;28;20361;-65
2023/08/03 10:58:50;;;;;;;8.10;7.20;;;;;;;35.06;29.28;95985.63;5096824;28;20493;-66
2023/08/03 11:01:23;;;;;;;10.68;6.90;;;;;;;35.23;29.46;95986.66;5096539;28;20044;-67
2023/08/03 11:03:50;;;;;;;8.00;6.82;;;;;;;34.93;29.37;95987.44;5096549;28;20052;-66
2023/08/03 11:06:19;;;;;;;9.35;7.45;;;;;;;34.99;29.33;95985.69;5096456;28;20517;-66
2023/08/03 11:08:46;;;;;;;10.43;7.15;;;;;;;35.14;30.71;95977.13;5096570;28;20127;-66
2023/08/03 11:11:21;;;;;;;8.20;7.28;;;;;;;35.36;28.80;95971.25;5096532;28;20050;-66
2023/08/03 11:13:49;;;;;;;10.32;6.97;;;;;;;35.40;28.92;95970.53;5096433;28;20048;-68
2023/08/03 11:16:18;;;;;;;8.30;7.45;;;;;;;35.27;28.91;95968.00;5096537;28;20056;-68
2023/08/03 11:18:46;;;;;;;11.65;7.80;;;;;;;35.19;30.20;95971.06;5096373;28;20048;-67
2023/08/03 11:21:14;;;;;;;9.77;7.57;;;;;;;35.38;29.91;95972.66;5096165;28;20052;-66
2023/08/03 11:23:43;;;;;;;11.10;7.57;;;;;;;35.45;29.81;95967.13;5096310;28;20086;-67
2023/08/03 11:26:11;;;;;;;10.15;7.20;;;;;;;35.35;29.84;95964.97;5096144;28;20048;-66
2023/08/03 11:28:40;;;;;;;8.80;7.75;;;;;;;35.34;28.86;95962.50;5096119;28;20054;-68
2023/08/03 11:31:15;;;;;;;9.93;7.75;;;;;;;35.49;30.70;95962.91;5096322;28;20083;-68
2023/08/03 11:33:50;;;;;;;7.65;6.95;;;;;;;35.45;30.00;95958.97;5095937;28;20048;-67
2023/08/03 11:36:17;;;;;;;10.02;7.72;;;;;;;35.41;30.56;95957.78;5096003;28;20044;-66
2023/08/03 11:38:46;;;;;;;7.63;6.95;;;;;;;35.51;30.06;95957.22;5096186;28;20082;-67